Hauptseite
METAR-TAF:

METAR-TAF

Flughäfen :

Flughafen Kerry

Killarney, Irland

Breite: 52-10-51N, Länge: 9-31-26W, Höhe: 34 m

Beobachtung

Neuester Wetterbericht von vor 38 Minuten, um 19:30 UTC
Wind 2 kt aus unterschiedlichen Richtungen
Temperatur 1°C
Luftfeuchtigkeit 93%
Luftdruck 1028 hPa
Sichtweite 10 km oder mehr
Leicht bewölkt in der Höhe von 2400 ft

METAR: EIKY 201930Z VRB02KT 9999 FEW024 01/M00 Q1028

Zeit: 20:08 (20:08 UTC)

Prognose

Neuester Wetterbericht von vor 3 Stunden und 8 Minuten, um 17:00 UTC
Gültige Prognose vom 20 um 18 UTC bis 20 um 21 UTC
Wind 3 kt aus unterschiedlichen Richtungen
Sichtweite 10 km oder mehr
Aufgelockert bewölkt in der Höhe von 2500 ft

TAF: EIKY 201700Z 2018/2021 VRB03KT 9999 SCT025

Wetterbeobachtungen und Prognosen von mehr als 4000 Flughäfen (METAR und TAF Bericht).

Die verfügbaren Stationen werden durch gelbe und rote Markierungen auf der Karte dargestellt.

Führen Sie die Maus auf sie, um den Namen der Station zu sehen.

Darauf klicken, um die Beobachtung von Wetterbeobachtungen und Prognosen zu sehen.

Um die Karte zu ändern : klicken Sie auf den grünen Tasten mit einem schwarzen Kreuz Zum Vergrößern, auf den grünen Button mit einem Gedankenstrich zu verkleinern, oder auf die grünen Pfeile für benachbarte Karten.


METAR-TAF: